Flight Track Log - Related Links

Times and Time Zones

All times are in EDT time to prevent confusion due to time zone crossing. See the N789EX flight status page for this flight to view local times or setup timezone preferences in your user account.

Time Position Orientation Groundspeed Altitude Reporting Facility
EDT Latitude Longitude Course Direction KTS MPH feet Rate Location/Type
Fri 02:33:58 PM 47.4916 -122.2660 145° Southeast 216 249 2,000  Level FlightAware ADS-B
Fri 02:34:13 PM 47.4783 -122.2520 145° Southeast 238 274 2,400 2,276 Climbing FlightAware ADS-B
Fri 02:34:27 PM 47.4659 -122.2400 145° Southeast 248 285 3,100 2,824 Climbing FlightAware ADS-B
Fri 02:34:30 PM 47.4631 -122.2360 142° Southeast 252 290 3,200 2,571 Climbing FlightAware ADS-B
Fri 02:34:34 PM 47.4595 -122.2320 135° Southeast 255 293 3,400 3,000 Climbing FlightAware ADS-B
Fri 02:34:38 PM 47.4567 -122.2260 127° Southeast 258 297 3,600 3,429 Climbing FlightAware ADS-B
Fri 02:34:41 PM 47.4543 -122.2210 119° Southeast 261 300 3,800 4,000 Climbing FlightAware ADS-B
Fri 02:34:44 PM 47.4528 -122.2160 113° Southeast 262 302 4,000 3,000 Climbing FlightAware ADS-B
Fri 02:34:49 PM 47.4513 -122.2080 105° East 264 304 4,200 3,333 Climbing FlightAware ADS-B
Fri 02:34:53 PM 47.4505 -122.2010 97° East 265 305 4,500 4,286 Climbing FlightAware ADS-B
Fri 02:34:56 PM 47.4504 -122.1960 91° East 264 304 4,700 5,000 Climbing FlightAware ADS-B
Fri 02:34:59 PM 47.4506 -122.1900 87° East 265 305 5,000 4,286 Climbing FlightAware ADS-B
Fri 02:35:03 PM 47.4512 -122.1830 82° East 266 306 5,200 3,333 Climbing FlightAware ADS-B
Fri 02:35:08 PM 47.4523 -122.1740 79° East 266 306 5,500 3,857 Climbing FlightAware ADS-B
Fri 02:35:17 PM 47.4547 -122.1580 79° East 268 308 6,100 3,692 Climbing FlightAware ADS-B
Fri 02:35:21 PM 47.4554 -122.1510 82° East 269 310 6,300 4,200 Climbing FlightAware ADS-B
Fri 02:35:27 PM 47.4563 -122.1390 86° East 270 311 6,800 3,818 Climbing FlightAware ADS-B
Fri 02:35:32 PM 47.4566 -122.1300 88° East 270 311 7,000 3,273 Climbing FlightAware ADS-B
Fri 02:35:38 PM 47.4566 -122.1180 91° East 272 313 7,400 3,818 Climbing FlightAware ADS-B
Fri 02:35:43 PM 47.4562 -122.1090 94° East 274 315 7,700 3,143 Climbing FlightAware ADS-B
Fri 02:35:59 PM 47.4543 -122.0790 96° East 277 319 8,500 3,231 Climbing FlightAware ADS-B
Fri 02:36:09 PM 47.4530 -122.0600 96° East 279 321 9,100 3,857 Climbing FlightAware ADS-B
Fri 02:36:27 PM 47.4514 -122.0350 96° East 282 325 10,300 3,200 Climbing FlightAware ADS-B
Fri 02:36:39 PM 47.4492 -122.0030 96° East 291 335 10,700 1,385 Climbing FlightAware ADS-B
Fri 02:37:06 PM 47.4454 -121.9460 96° East 329 379 11,200 1,161 Climbing FlightAware ADS-B (CYVR)
Fri 02:37:10 PM 47.4448 -121.9370 96° East 333 383 11,300 1,200 Climbing FlightAware ADS-B
Fri 02:37:41 PM 47.4397 -121.8630 96° East 373 429 11,900 1,235 Climbing FlightAware ADS-B
Fri 02:37:44 PM 47.4395 -121.8612 96° East 380 437 12,000 1,742 Climbing FlightAware ADS-B
Fri 02:38:12 PM 47.4336 -121.7800 96° East 399 459 12,800 2,057 Climbing FlightAware ADS-B
Fri 02:38:19 PM 47.4326 -121.7662 96° East 402 463 13,200 2,800 Climbing FlightAware ADS-B
Fri 02:38:42 PM 47.4295 -121.6990 93° East 409 471 14,200 2,604 Climbing FlightAware ADS-B
Fri 02:39:12 PM 47.4282 -121.6140 91° East 418 481 15,500 2,571 Climbing FlightAware ADS-B
Fri 02:39:17 PM 47.4280 -121.5994 91° East 419 482 15,700 3,600 Climbing FlightAware ADS-B (CYVR)
Fri 02:39:42 PM 47.4270 -121.5280 91° East 412 474 17,300 3,800 Climbing FlightAware ADS-B
Fri 02:39:47 PM 47.4268 -121.5139 91° East 406 467 17,600 2,800 Climbing FlightAware ADS-B (CYVR)
Fri 02:40:12 PM 47.4258 -121.4460 91° East 395 455 18,700 1,867 Climbing FlightAware ADS-B
Fri 02:40:32 PM 47.4263 -121.4790 91° East 397 457 19,000 600 Climbing FlightAware ADS-B (CYVR)
Fri 02:40:42 PM 47.4247 -121.3650 91° East 397 457 19,000  Level FlightAware ADS-B
Fri 02:41:04 PM 47.4236 -121.3077 92° East 393 452 19,000  Level FlightAware ADS-B (CYVR)
Fri 02:41:12 PM 47.4232 -121.2840 91° East 391 450 19,000  Level FlightAware ADS-B
Fri 02:41:43 PM 47.4218 -121.2030 91° East 390 449 19,000  Level FlightAware ADS-B
Fri 02:41:46 PM 47.4218 -121.2014 91° East 390 449 19,000  Level FlightAware ADS-B (CYVR)
Fri 02:42:14 PM 47.4205 -121.1220 91° East 390 449 19,000  Level FlightAware ADS-B
Fri 02:42:44 PM 47.4190 -121.0410 92° East 392 451 19,000  Level FlightAware ADS-B
Fri 02:43:14 PM 47.4175 -120.9610 91° East 392 451 19,000  Level FlightAware ADS-B
Fri 02:43:44 PM 47.4160 -120.8800 92° East 391 450 19,000  Level FlightAware ADS-B
Fri 02:44:14 PM 47.4143 -120.8000 92° East 391 450 19,000 -393 Level FlightAware ADS-B
Fri 02:44:45 PM 47.4127 -120.7190 92° East 390 449 18,600 -1,082 Descending FlightAware ADS-B
Fri 02:45:15 PM 47.4108 -120.6390 92° East 388 447 17,900 -1,452 Descending FlightAware ADS-B
Fri 02:45:47 PM 47.4090 -120.5550 92° East 386 444 17,100 -1,391 Descending FlightAware ADS-B
Fri 02:46:24 PM 47.4069 -120.4590 92° East 383 441 16,300 -1,115 Descending FlightAware ADS-B
Fri 02:47:40 PM 47.4025 -120.2844 92° East 386 444 15,000 -565 Descending Seattle Center
Fri 02:48:42 PM 47.3983 -120.1208 92° East 403 464 15,000 -1,415 Level Seattle Center
Fri 02:49:43 PM 47.3933 -119.9828 93° East 344 396 12,100 -2,016 Descending Seattle Center
Fri 02:50:44 PM 47.3908 -119.8542 92° East 322 371 10,900 -541 Descending Seattle Center
Fri 02:51:45 PM 47.3878 -119.7414 92° East 240 276 11,000 49 Climbing Seattle Center
Fri 02:52:46 PM 47.3831 -119.6508 94° East 227 261 11,000 -787 Level Seattle Center
Fri 02:53:47 PM 47.3814 -119.5603 92° East 225 259 9,400 -1,574 Descending Seattle Center

Login

Don't have an account? Register now (free) for customized features, flight alerts, and more!